createdAt,value
2023-05-22T00:17:19.687Z,100.00
2023-05-22T00:21:00.579Z,100.00
2023-05-22T00:24:01.310Z,100.00
2023-05-22T00:26:34.398Z,100.00
2023-05-22T00:29:01.836Z,100.00
2023-05-22T00:31:57.932Z,100.00
2023-05-22T00:35:01.974Z,100.00
2023-05-22T00:37:36.736Z,100.00
2023-05-22T00:43:47.013Z,100.00
2023-05-22T00:50:01.680Z,100.00
2023-05-22T00:55:31.263Z,100.00
2023-05-22T00:58:05.683Z,100.00
2023-05-22T01:01:29.461Z,100.00
2023-05-22T01:07:29.124Z,100.00
2023-05-22T01:10:02.372Z,100.00
2023-05-22T01:13:27.610Z,100.00
2023-05-22T01:17:02.746Z,100.00
2023-05-22T01:20:34.741Z,100.00
2023-05-22T01:24:02.434Z,100.00
2023-05-22T01:30:50.087Z,100.00
2023-05-22T01:37:02.128Z,100.00
2023-05-22T01:39:39.613Z,100.00
2023-05-22T01:42:21.949Z,100.00
2023-05-22T01:45:01.318Z,100.00
2023-05-22T01:47:43.484Z,100.00
2023-05-22T01:50:36.150Z,100.00
2023-05-22T01:53:57.214Z,100.00
2023-05-22T01:56:44.444Z,100.00
2023-05-22T01:59:48.187Z,100.00
2023-05-22T02:05:45.287Z,100.00
2023-05-22T02:08:31.172Z,100.00
2023-05-22T02:11:55.283Z,100.00
2023-05-22T02:15:08.241Z,100.00
2023-05-22T02:18:25.574Z,100.00
2023-05-22T02:21:21.168Z,100.00
2023-05-22T02:24:09.949Z,100.00
2023-05-22T02:26:57.053Z,100.00
2023-05-22T02:30:03.444Z,100.00
2023-05-22T02:32:44.004Z,100.00
2023-05-22T02:35:19.440Z,100.00
2023-05-22T02:38:02.765Z,100.00
2023-05-22T02:41:11.297Z,100.00
2023-05-22T02:47:02.716Z,100.00
2023-05-22T02:49:47.119Z,100.00
2023-05-22T02:52:55.170Z,100.00
2023-05-22T02:58:15.936Z,100.00
2023-05-22T03:00:50.022Z,100.00
2023-05-22T03:03:40.370Z,100.00
2023-05-22T03:06:31.145Z,100.00
2023-05-22T03:10:01.592Z,100.00
2023-05-22T03:13:02.362Z,100.00
2023-05-22T03:16:02.784Z,100.00
2023-05-22T03:18:54.252Z,100.00
2023-05-22T03:22:01.252Z,100.00
2023-05-22T03:25:12.154Z,100.00
2023-05-22T03:27:45.537Z,100.00
2023-05-22T03:30:30.946Z,100.00
2023-05-22T03:33:20.659Z,100.00
2023-05-22T03:35:50.854Z,100.00
2023-05-22T03:38:35.689Z,100.00
2023-05-22T03:41:27.418Z,100.00
2023-05-22T03:56:02.807Z,100.00
2023-05-22T03:58:43.641Z,100.00
2023-05-22T04:04:47.247Z,100.00
2023-05-22T04:11:02.704Z,100.00
2023-05-22T04:13:59.495Z,100.00
2023-05-22T04:16:41.119Z,100.00
2023-05-22T04:19:37.468Z,100.00
2023-05-22T04:22:28.350Z,100.00
2023-05-22T04:25:29.358Z,100.00
2023-05-22T04:28:11.625Z,100.00
2023-05-22T04:30:54.095Z,100.00
2023-05-22T04:36:49.404Z,100.00
2023-05-22T04:39:40.105Z,100.00
2023-05-22T04:42:36.099Z,100.00
2023-05-22T04:45:20.779Z,100.00
2023-05-22T04:48:01.446Z,100.00
2023-05-22T04:50:50.595Z,100.00
2023-05-22T04:59:29.495Z,100.00
2023-05-22T05:03:21.718Z,100.00
2023-05-22T05:10:05.094Z,100.00
2023-05-22T05:15:10.826Z,100.00
2023-05-22T05:24:19.836Z,100.00
2023-05-22T05:27:02.142Z,100.00
2023-05-22T05:30:52.918Z,100.00
2023-05-22T05:37:39.112Z,100.00
2023-05-22T05:40:50.198Z,100.00
2023-05-22T05:43:44.652Z,100.00
2023-05-22T05:46:38.267Z,100.00
2023-05-22T05:49:48.610Z,100.00
2023-05-22T05:53:12.830Z,100.00
2023-05-22T05:55:59.770Z,100.00
2023-05-22T05:58:36.068Z,100.00
2023-05-22T06:01:36.137Z,100.00
2023-05-22T06:04:30.186Z,100.00
2023-05-22T06:07:23.972Z,100.00
2023-05-22T06:10:48.987Z,100.00
2023-05-22T06:17:42.961Z,100.00
2023-05-22T06:20:35.874Z,100.00
2023-05-22T06:23:30.199Z,100.00
2023-05-22T06:29:25.459Z,100.00
2023-05-22T06:35:11.053Z,100.00
2023-05-22T06:38:46.047Z,100.00
2023-05-22T06:42:20.112Z,100.00
2023-05-22T06:45:39.827Z,100.00
2023-05-22T06:48:54.687Z,100.00
2023-05-22T06:51:41.177Z,100.00
2023-05-22T06:55:01.948Z,100.00
2023-05-22T06:57:56.590Z,100.00
2023-05-22T07:00:44.617Z,100.00
2023-05-22T07:08:01.570Z,100.00
2023-05-22T07:11:29.238Z,91.06
2023-05-22T07:14:44.968Z,99.98
2023-05-22T07:18:29.542Z,100.00
2023-05-22T07:21:35.466Z,100.00
2023-05-22T07:24:21.205Z,98.82
2023-05-22T07:27:02.557Z,92.45
2023-05-22T07:29:42.637Z,100.00
2023-05-22T07:32:17.303Z,100.00
2023-05-22T07:35:11.483Z,100.00
2023-05-22T07:37:48.330Z,100.00
2023-05-22T07:40:34.123Z,100.00
2023-05-22T07:43:02.576Z,100.00
2023-05-22T07:45:40.800Z,100.00
2023-05-22T07:48:17.813Z,100.00
2023-05-22T07:51:31.634Z,100.00
2023-05-22T07:54:34.617Z,100.00
2023-05-22T07:57:17.948Z,100.00
2023-05-22T07:59:47.852Z,100.00
2023-05-22T08:02:16.338Z,96.89
2023-05-22T08:04:44.774Z,100.00
2023-05-22T08:07:26.862Z,100.00
2023-05-22T08:09:56.855Z,98.74
2023-05-22T08:12:24.207Z,100.00
2023-05-22T08:14:59.047Z,100.00
2023-05-22T08:17:27.016Z,89.74
2023-05-22T08:19:57.149Z,92.86
2023-05-22T08:22:38.731Z,97.26
2023-05-22T08:25:09.977Z,97.18
2023-05-22T08:27:53.438Z,90.73
2023-05-22T08:30:58.716Z,84.96
2023-05-22T08:34:02.199Z,94.22
2023-05-22T08:37:10.891Z,88.32
2023-05-22T08:39:38.177Z,88.85
2023-05-22T08:42:28.671Z,96.78
2023-05-22T08:45:17.262Z,94.42
2023-05-22T08:47:57.870Z,93.89
2023-05-22T08:50:53.779Z,90.56
2023-05-22T08:53:36.766Z,89.74
2023-05-22T08:56:11.838Z,86.46
2023-05-22T08:58:50.564Z,85.10
2023-05-22T09:01:32.626Z,90.66
2023-05-22T09:04:02.114Z,90.94
2023-05-22T09:06:33.068Z,92.00
2023-05-22T09:09:07.866Z,90.73
2023-05-22T09:11:35.651Z,89.75
2023-05-22T09:14:13.505Z,81.86
2023-05-22T09:17:11.494Z,77.41
2023-05-22T09:21:02.059Z,70.82
2023-05-22T09:23:54.675Z,84.90
2023-05-22T09:26:24.315Z,77.20
2023-05-22T09:29:00.140Z,81.48
2023-05-22T09:31:55.933Z,78.47
2023-05-22T09:35:32.662Z,74.91
2023-05-22T09:38:19.575Z,72.50
2023-05-22T09:41:10.123Z,79.15
2023-05-22T09:44:02.256Z,78.16
2023-05-22T09:46:44.260Z,81.19
2023-05-22T09:49:17.891Z,81.64
2023-05-22T09:51:51.055Z,78.62
2023-05-22T09:54:24.263Z,86.49
2023-05-22T09:57:01.044Z,81.98
2023-05-22T09:59:36.114Z,73.83
2023-05-22T10:02:11.592Z,72.28
2023-05-22T10:05:05.179Z,74.51
2023-05-22T10:08:52.924Z,79.06
2023-05-22T10:12:22.949Z,75.46
2023-05-22T10:15:07.711Z,80.45
2023-05-22T10:17:41.382Z,77.73
2023-05-22T10:20:16.792Z,85.75
2023-05-22T10:23:16.502Z,78.64
2023-05-22T10:26:08.988Z,76.28
2023-05-22T10:28:57.600Z,81.83
2023-05-22T10:31:52.939Z,70.49
2023-05-22T10:34:52.304Z,67.81
2023-05-22T10:37:48.383Z,77.24
2023-05-22T10:40:48.005Z,86.24
2023-05-22T10:43:52.917Z,78.41
2023-05-22T10:46:39.038Z,77.80
2023-05-22T10:49:40.749Z,74.90
2023-05-22T10:53:06.744Z,60.31
2023-05-22T10:55:49.806Z,61.00
2023-05-22T10:58:21.205Z,63.03
2023-05-22T11:01:07.669Z,63.59
2023-05-22T11:03:57.469Z,69.62
2023-05-22T11:06:49.208Z,67.31
2023-05-22T11:09:47.124Z,67.51
2023-05-22T11:12:29.122Z,60.60
2023-05-22T11:15:08.154Z,57.58
2023-05-22T11:17:59.874Z,62.91
2023-05-22T11:21:16.175Z,58.70
2023-05-22T11:24:31.093Z,55.97
2023-05-22T11:27:18.517Z,56.18
2023-05-22T11:33:12.376Z,54.58
2023-05-22T11:36:27.536Z,57.42
2023-05-22T11:39:40.296Z,65.94
2023-05-22T11:42:45.935Z,58.58
2023-05-22T11:45:28.322Z,56.75
2023-05-22T11:48:43.456Z,60.99
2023-05-22T11:52:16.083Z,58.63
2023-05-22T11:55:19.076Z,55.98
2023-05-22T11:57:48.831Z,62.28
2023-05-22T12:00:19.231Z,58.13
2023-05-22T12:02:48.008Z,55.68
2023-05-22T12:05:23.487Z,53.66
2023-05-22T12:08:16.647Z,57.77
2023-05-22T12:11:24.880Z,57.58
2023-05-22T12:14:21.437Z,63.91
2023-05-22T12:16:53.276Z,64.57
2023-05-22T12:22:26.697Z,64.42
2023-05-22T12:24:57.737Z,63.66
2023-05-22T12:27:40.154Z,64.19
2023-05-22T12:30:30.753Z,63.72
2023-05-22T12:33:19.625Z,64.91
2023-05-22T12:35:53.800Z,64.79
2023-05-22T12:38:22.773Z,65.95
2023-05-22T12:41:26.271Z,59.75
2023-05-22T12:44:41.355Z,60.22
2023-05-22T12:47:42.980Z,57.87
2023-05-22T12:51:18.563Z,57.96
2023-05-22T12:54:02.814Z,64.23
2023-05-22T12:56:39.641Z,63.90
2023-05-22T12:59:19.409Z,63.17
2023-05-22T13:01:57.339Z,61.48
2023-05-22T13:08:18.345Z,58.05
2023-05-22T13:12:00.570Z,62.82
2023-05-22T13:14:45.032Z,59.22
2023-05-22T13:17:17.792Z,57.04
2023-05-22T13:19:45.198Z,57.18
2023-05-22T13:22:12.656Z,60.40
2023-05-22T13:24:40.157Z,60.77
2023-05-22T13:27:07.452Z,60.77
2023-05-22T13:29:55.077Z,60.76
2023-05-22T13:32:41.683Z,62.78
2023-05-22T13:35:09.394Z,62.71
2023-05-22T13:37:58.930Z,61.66
2023-05-22T13:40:59.828Z,59.64
2023-05-22T13:44:00.044Z,59.74
2023-05-22T13:46:27.255Z,58.09
2023-05-22T13:48:54.767Z,59.81
2023-05-22T13:51:40.095Z,59.45
2023-05-22T13:54:42.452Z,57.95
2023-05-22T13:57:25.001Z,61.37
2023-05-22T13:59:54.491Z,57.56
2023-05-22T14:02:26.670Z,55.47
2023-05-22T14:04:57.100Z,56.30
2023-05-22T14:07:24.818Z,57.53
2023-05-22T14:09:53.441Z,56.72
2023-05-22T14:12:26.824Z,60.42
2023-05-22T14:14:54.052Z,60.75
2023-05-22T14:17:21.191Z,57.80
2023-05-22T14:19:50.796Z,57.95
2023-05-22T14:22:38.497Z,57.12
2023-05-22T14:25:43.157Z,54.31
2023-05-22T14:28:22.981Z,55.00
2023-05-22T14:31:28.394Z,54.38
2023-05-22T14:34:22.890Z,54.40
2023-05-22T14:36:55.104Z,54.12
2023-05-22T14:40:01.032Z,56.57
2023-05-22T14:42:57.773Z,56.01
2023-05-22T14:45:52.814Z,55.43
2023-05-22T14:48:26.985Z,54.93
2023-05-22T14:51:01.260Z,55.57
2023-05-22T14:53:32.874Z,54.82
2023-05-22T14:56:00.209Z,55.43
2023-05-22T14:58:29.947Z,55.52
2023-05-22T15:00:57.887Z,56.70
2023-05-22T15:03:44.978Z,54.17
2023-05-22T15:06:46.007Z,54.18
2023-05-22T15:09:38.950Z,53.64
2023-05-22T15:12:07.127Z,54.41
2023-05-22T15:14:37.777Z,53.40
2023-05-22T15:17:09.689Z,54.65
2023-05-22T15:19:39.470Z,54.39
2023-05-22T15:22:25.653Z,57.12
2023-05-22T15:25:06.810Z,57.02
2023-05-22T15:27:38.300Z,57.01
2023-05-22T15:30:22.615Z,52.47
2023-05-22T15:32:56.344Z,51.26
2023-05-22T15:35:26.587Z,51.38
2023-05-22T15:38:20.058Z,54.11
2023-05-22T15:42:02.290Z,52.61
2023-05-22T15:45:22.262Z,52.83
2023-05-22T15:48:33.451Z,52.44
2023-05-22T15:51:37.505Z,51.47
2023-05-22T15:54:23.894Z,52.46
2023-05-22T15:56:59.771Z,52.43
2023-05-22T16:02:31.412Z,53.72
2023-05-22T16:05:46.959Z,51.45
2023-05-22T16:08:41.394Z,50.53
2023-05-22T16:18:33.835Z,53.81
2023-05-22T16:22:44.231Z,53.60
2023-05-22T16:28:59.322Z,56.95
2023-05-22T16:31:50.515Z,61.26
2023-05-22T16:37:42.607Z,55.89
2023-05-22T16:40:53.552Z,57.50
2023-05-22T16:48:03.270Z,55.48
2023-05-22T16:51:12.594Z,54.43
2023-05-22T16:54:01.831Z,56.69
2023-05-22T16:57:02.974Z,58.00
2023-05-22T17:03:12.628Z,55.10
2023-05-22T17:12:31.627Z,56.83
2023-05-22T17:22:37.131Z,59.20
2023-05-22T17:25:40.486Z,61.48
2023-05-22T17:28:29.570Z,61.57
2023-05-22T17:31:23.280Z,59.14
2023-05-22T17:34:02.472Z,63.45
2023-05-22T17:37:00.510Z,66.02
2023-05-22T17:39:31.588Z,67.09
2023-05-22T17:43:00.813Z,69.59
2023-05-22T17:45:45.496Z,71.39
2023-05-22T17:48:49.630Z,72.47
2023-05-22T17:51:52.155Z,72.13
2023-05-22T17:54:23.002Z,73.66
2023-05-22T17:57:12.040Z,74.80
2023-05-22T18:03:44.580Z,76.04
2023-05-22T18:06:46.929Z,79.18
2023-05-22T18:09:34.309Z,81.15
2023-05-22T18:15:05.503Z,89.83
2023-05-22T18:18:03.149Z,86.75
2023-05-22T18:20:55.905Z,90.48
2023-05-22T18:30:36.699Z,97.96
2023-05-22T18:36:55.887Z,100.00
2023-05-22T18:43:55.075Z,100.00
2023-05-22T18:48:07.358Z,100.00
2023-05-22T18:51:47.761Z,100.00
2023-05-22T18:55:12.618Z,100.00
2023-05-22T18:58:02.723Z,100.00
2023-05-22T19:06:01.984Z,100.00
2023-05-22T19:13:23.259Z,100.00
2023-05-22T19:16:43.073Z,100.00
2023-05-22T19:24:01.734Z,100.00
2023-05-22T19:27:19.386Z,100.00
2023-05-22T19:30:54.391Z,100.00
2023-05-22T19:33:59.830Z,100.00
2023-05-22T19:37:14.135Z,100.00
2023-05-22T19:45:41.030Z,100.00
2023-05-22T19:49:03.518Z,100.00
2023-05-22T19:55:02.092Z,100.00
2023-05-22T20:13:39.203Z,100.00
2023-05-22T20:20:02.636Z,100.00
2023-05-22T20:32:33.763Z,100.00
2023-05-22T20:39:36.007Z,100.00
2023-05-22T20:43:34.327Z,100.00
2023-05-22T20:49:30.799Z,100.00
2023-05-22T20:52:33.901Z,100.00
2023-05-22T20:55:03.468Z,100.00
2023-05-22T20:59:02.836Z,100.00
2023-05-22T21:01:46.030Z,100.00
2023-05-22T21:04:21.450Z,100.00
2023-05-22T21:07:21.659Z,100.00
2023-05-22T21:10:43.985Z,100.00
2023-05-22T21:18:07.441Z,100.00
2023-05-22T21:20:50.644Z,100.00
2023-05-22T21:23:27.494Z,100.00
2023-05-22T21:26:23.616Z,100.00
2023-05-22T21:29:09.494Z,100.00
2023-05-22T21:32:11.331Z,100.00
2023-05-22T21:35:28.149Z,100.00
2023-05-22T21:38:02.513Z,100.00
2023-05-22T21:41:04.139Z,100.00
2023-05-22T21:47:16.537Z,100.00
2023-05-22T21:50:18.691Z,100.00
2023-05-22T21:57:25.535Z,100.00
2023-05-22T22:00:30.110Z,100.00
2023-05-22T22:03:38.953Z,100.00
2023-05-22T22:09:58.609Z,100.00
2023-05-22T22:13:03.664Z,100.00
2023-05-22T22:16:24.631Z,100.00
2023-05-22T22:22:14.589Z,100.00
2023-05-22T22:25:02.618Z,100.00
2023-05-22T22:27:35.874Z,100.00
2023-05-22T22:30:27.111Z,100.00
2023-05-22T22:33:03.949Z,100.00
2023-05-22T22:35:53.843Z,100.00
2023-05-22T22:41:53.710Z,100.00
2023-05-22T22:44:51.737Z,100.00
2023-05-22T22:47:33.947Z,100.00
2023-05-22T22:50:04.769Z,100.00
2023-05-22T22:53:01.152Z,100.00
2023-05-22T22:55:38.842Z,100.00
2023-05-22T22:58:15.837Z,100.00
2023-05-22T23:03:57.605Z,100.00
2023-05-22T23:06:35.492Z,100.00
2023-05-22T23:09:29.787Z,100.00
2023-05-22T23:12:40.450Z,100.00
2023-05-22T23:15:47.539Z,100.00
2023-05-22T23:18:37.272Z,100.00
2023-05-22T23:21:32.077Z,100.00
2023-05-22T23:27:00.349Z,100.00
2023-05-22T23:29:39.807Z,100.00
2023-05-22T23:32:33.821Z,100.00
2023-05-22T23:35:14.682Z,100.00
2023-05-22T23:38:43.938Z,100.00
2023-05-22T23:41:50.718Z,100.00
2023-05-22T23:44:41.220Z,100.00
2023-05-22T23:50:47.699Z,100.00
2023-05-22T23:57:00.612Z,100.00
2023-05-22T23:59:35.604Z,100.00
